createdAt,value
2023-02-28T00:00:20.807Z,69.78
2023-02-28T00:01:20.738Z,70.06
2023-02-28T00:02:20.726Z,69.68
2023-02-28T00:03:20.661Z,70.06
2023-02-28T00:04:20.562Z,69.96
2023-02-28T00:05:20.521Z,70.06
2023-02-28T00:06:20.442Z,69.96
2023-02-28T00:07:20.382Z,70.15
2023-02-28T00:08:20.320Z,69.96
2023-02-28T00:09:20.259Z,70.15
2023-02-28T00:10:20.202Z,69.96
2023-02-28T00:11:20.152Z,69.68
2023-02-28T00:12:20.073Z,69.96
2023-02-28T00:13:20.027Z,70.15
2023-02-28T00:14:19.950Z,69.96
2023-02-28T00:15:19.888Z,69.68
2023-02-28T00:16:20.566Z,69.65
2023-02-28T00:17:19.772Z,69.78
2023-02-28T00:18:19.707Z,69.96
2023-02-28T00:19:19.642Z,69.68
2023-02-28T00:20:19.583Z,69.78
2023-02-28T00:21:19.526Z,69.68
2023-02-28T00:22:19.458Z,69.78
2023-02-28T00:23:19.405Z,69.96
2023-02-28T00:24:19.424Z,70.06
2023-02-28T00:25:19.274Z,69.68
2023-02-28T00:26:21.699Z,69.96
2023-02-28T00:27:19.147Z,69.96
2023-02-28T00:28:19.086Z,69.93
2023-02-28T00:29:19.034Z,70.15
2023-02-28T00:30:18.963Z,69.59
2023-02-28T00:31:18.930Z,69.68
2023-02-28T00:32:18.847Z,70.25
2023-02-28T00:33:18.776Z,70.06
2023-02-28T00:34:18.719Z,69.96
2023-02-28T00:35:18.657Z,69.96
2023-02-28T00:36:18.600Z,69.96
2023-02-28T00:37:18.529Z,69.96
2023-02-28T00:38:18.466Z,69.93
2023-02-28T00:39:18.408Z,69.96
2023-02-28T00:40:18.341Z,69.93
2023-02-28T00:41:18.281Z,70.06
2023-02-28T00:42:18.219Z,69.96
2023-02-28T00:43:18.158Z,69.96
2023-02-28T00:44:18.099Z,69.68
2023-02-28T00:45:18.043Z,69.68
2023-02-28T00:46:18.048Z,69.74
2023-02-28T00:47:17.918Z,69.68
2023-02-28T00:48:17.852Z,70.15
2023-02-28T00:49:17.788Z,70.06
2023-02-28T00:50:17.733Z,69.96
2023-02-28T00:51:17.667Z,70.06
2023-02-28T00:52:17.602Z,69.93
2023-02-28T00:53:17.540Z,69.84
2023-02-28T00:54:17.487Z,69.87
2023-02-28T00:55:17.419Z,69.96
2023-02-28T00:56:17.356Z,70.15
2023-02-28T00:57:17.297Z,70.21
2023-02-28T00:58:17.237Z,69.93
2023-02-28T00:59:17.170Z,69.93
2023-02-28T01:00:17.110Z,69.65
2023-02-28T01:01:17.085Z,69.96
2023-02-28T01:02:16.992Z,69.68
2023-02-28T01:03:16.926Z,69.68
2023-02-28T01:04:16.885Z,69.93
2023-02-28T01:05:16.809Z,69.93
2023-02-28T01:06:16.738Z,69.84
2023-02-28T01:07:16.680Z,69.74
2023-02-28T01:08:16.616Z,69.84
2023-02-28T01:09:16.554Z,69.78
2023-02-28T01:10:16.490Z,69.74
2023-02-28T01:11:16.433Z,69.96
2023-02-28T01:12:16.373Z,69.96
2023-02-28T01:13:16.317Z,69.74
2023-02-28T01:14:16.251Z,69.93
2023-02-28T01:15:16.184Z,69.93
2023-02-28T01:16:16.124Z,69.74
2023-02-28T01:17:16.077Z,69.93
2023-02-28T01:18:16.027Z,69.93
2023-02-28T01:19:16.319Z,69.65
2023-02-28T01:20:15.891Z,69.93
2023-02-28T01:21:15.813Z,69.74
2023-02-28T01:22:15.757Z,70.03
2023-02-28T01:23:15.691Z,69.74
2023-02-28T01:24:15.634Z,69.93
2023-02-28T01:25:15.611Z,70.12
2023-02-28T01:26:15.505Z,69.74
2023-02-28T01:27:15.449Z,69.93
2023-02-28T01:28:15.382Z,69.84
2023-02-28T01:29:15.320Z,69.65
2023-02-28T01:30:15.256Z,69.65
2023-02-28T01:31:15.310Z,69.93
2023-02-28T01:32:15.264Z,69.74
2023-02-28T01:33:15.079Z,70.12
2023-02-28T01:34:15.012Z,69.65
2023-02-28T01:35:14.951Z,70.12
2023-02-28T01:36:14.886Z,69.84
2023-02-28T01:37:14.824Z,69.87
2023-02-28T01:38:22.300Z,70.03
2023-02-28T01:39:14.703Z,69.84
2023-02-28T01:40:14.644Z,69.93
2023-02-28T01:41:14.576Z,69.93
2023-02-28T01:42:14.514Z,70.03
2023-02-28T01:43:14.452Z,69.65
2023-02-28T01:44:14.390Z,70.03
2023-02-28T01:45:14.330Z,70.12
2023-02-28T01:46:14.280Z,70.12
2023-02-28T01:47:14.216Z,69.93
2023-02-28T01:48:14.143Z,69.93
2023-02-28T01:49:14.103Z,70.69
2023-02-28T01:50:14.021Z,69.93
2023-02-28T01:51:13.976Z,70.12
2023-02-28T01:52:13.913Z,70.12
2023-02-28T01:53:13.837Z,70.03
2023-02-28T01:54:13.769Z,69.93
2023-02-28T01:55:13.710Z,70.21
2023-02-28T01:56:13.646Z,70.03
2023-02-28T01:57:13.586Z,70.59
2023-02-28T01:58:13.522Z,70.78
2023-02-28T01:59:13.472Z,70.03
2023-02-28T02:00:13.400Z,70.12
2023-02-28T02:01:13.338Z,70.03
2023-02-28T02:02:13.282Z,70.69
2023-02-28T02:03:13.845Z,70.40
2023-02-28T02:04:13.143Z,70.50
2023-02-28T02:05:13.096Z,70.12
2023-02-28T02:06:13.028Z,70.21
2023-02-28T02:07:12.991Z,70.50
2023-02-28T02:08:12.901Z,70.88
2023-02-28T02:09:12.851Z,70.88
2023-02-28T02:10:12.773Z,71.07
2023-02-28T02:11:12.724Z,70.88
2023-02-28T02:12:12.645Z,70.78
2023-02-28T02:13:12.598Z,70.78
2023-02-28T02:14:12.529Z,70.59
2023-02-28T02:15:12.461Z,70.40
2023-02-28T02:16:12.474Z,70.88
2023-02-28T02:17:12.342Z,70.78
2023-02-28T02:18:12.284Z,70.88
2023-02-28T02:19:12.219Z,70.88
2023-02-28T02:20:12.156Z,70.78
2023-02-28T02:21:12.100Z,70.78
2023-02-28T02:22:12.033Z,70.82
2023-02-28T02:23:11.987Z,70.69
2023-02-28T02:24:11.905Z,70.88
2023-02-28T02:25:11.856Z,70.78
2023-02-28T02:26:11.791Z,70.69
2023-02-28T02:27:11.722Z,70.50
2023-02-28T02:28:11.661Z,70.50
2023-02-28T02:29:11.604Z,70.59
2023-02-28T02:30:11.542Z,70.59
2023-02-28T02:31:11.574Z,70.40
2023-02-28T02:32:11.561Z,70.40
2023-02-28T02:33:11.354Z,70.50
2023-02-28T02:34:11.293Z,70.69
2023-02-28T02:35:11.233Z,70.69
2023-02-28T02:36:11.172Z,70.78
2023-02-28T02:37:11.112Z,70.40
2023-02-28T02:38:11.038Z,70.59
2023-02-28T02:39:10.979Z,70.59
2023-02-28T02:40:10.920Z,70.69
2023-02-28T02:41:10.853Z,70.40
2023-02-28T02:42:10.797Z,70.82
2023-02-28T02:43:10.740Z,70.78
2023-02-28T02:44:10.671Z,70.69
2023-02-28T02:45:10.618Z,70.50
2023-02-28T02:46:10.544Z,70.69
2023-02-28T02:47:10.492Z,70.31
2023-02-28T02:48:10.427Z,70.69
2023-02-28T02:49:10.361Z,70.21
2023-02-28T02:50:10.302Z,70.31
2023-02-28T02:51:10.242Z,70.40
2023-02-28T02:52:10.177Z,70.40
2023-02-28T02:53:10.132Z,70.31
2023-02-28T02:54:10.057Z,70.50
2023-02-28T02:55:09.993Z,70.59
2023-02-28T02:56:09.929Z,70.40
2023-02-28T02:57:09.872Z,70.69
2023-02-28T02:58:09.809Z,70.40
2023-02-28T02:59:09.746Z,70.69
2023-02-28T03:00:09.681Z,70.78
2023-02-28T03:01:09.650Z,70.59
2023-02-28T03:02:09.560Z,70.69
2023-02-28T03:03:09.502Z,70.40
2023-02-28T03:04:09.477Z,70.31
2023-02-28T03:05:09.378Z,70.69
2023-02-28T03:06:09.332Z,70.59
2023-02-28T03:07:09.248Z,70.98
2023-02-28T03:08:09.190Z,70.59
2023-02-28T03:09:09.137Z,70.40
2023-02-28T03:10:09.065Z,70.98
2023-02-28T03:11:09.002Z,71.17
2023-02-28T03:12:08.942Z,70.98
2023-02-28T03:13:08.885Z,70.98
2023-02-28T03:14:08.814Z,71.26
2023-02-28T03:15:08.758Z,70.69
2023-02-28T03:16:08.740Z,70.31
2023-02-28T03:17:08.632Z,70.31
2023-02-28T03:18:08.567Z,70.40
2023-02-28T03:19:08.513Z,70.40
2023-02-28T03:20:08.720Z,70.78
2023-02-28T03:21:08.394Z,70.69
2023-02-28T03:22:08.328Z,70.78
2023-02-28T03:23:08.266Z,70.98
2023-02-28T03:24:08.201Z,71.17
2023-02-28T03:25:08.185Z,70.69
2023-02-28T03:26:08.080Z,70.98
2023-02-28T03:27:08.033Z,70.78
2023-02-28T03:28:07.964Z,70.69
2023-02-28T03:29:07.891Z,70.69
2023-02-28T03:30:07.827Z,70.59
2023-02-28T03:31:07.772Z,70.88
2023-02-28T03:32:07.775Z,70.69
2023-02-28T03:33:07.645Z,70.59
2023-02-28T03:34:07.585Z,71.07
2023-02-28T03:35:07.537Z,70.59
2023-02-28T03:36:07.460Z,70.98
2023-02-28T03:37:07.444Z,70.31
2023-02-28T03:38:07.334Z,70.40
2023-02-28T03:39:07.273Z,70.69
2023-02-28T03:40:07.212Z,71.26
2023-02-28T03:41:07.162Z,71.17
2023-02-28T03:42:07.094Z,70.78
2023-02-28T03:43:07.026Z,70.98
2023-02-28T03:44:06.966Z,70.69
2023-02-28T03:45:06.908Z,70.78
2023-02-28T03:46:06.900Z,70.40
2023-02-28T03:47:06.784Z,70.69
2023-02-28T03:48:06.722Z,71.17
2023-02-28T03:49:06.658Z,71.17
2023-02-28T03:50:06.621Z,71.07
2023-02-28T03:51:06.533Z,71.17
2023-02-28T03:52:06.468Z,71.07
2023-02-28T03:53:06.417Z,70.98
2023-02-28T03:54:06.351Z,71.17
2023-02-28T03:55:06.290Z,71.26
2023-02-28T03:56:06.224Z,71.17
2023-02-28T03:57:06.252Z,71.17
2023-02-28T03:58:06.106Z,70.78
2023-02-28T03:59:06.146Z,71.26
2023-02-28T04:00:05.975Z,71.17
2023-02-28T04:01:05.911Z,71.07
2023-02-28T04:02:05.871Z,71.26
2023-02-28T04:03:05.793Z,71.26
2023-02-28T04:04:05.784Z,70.88
2023-02-28T04:05:07.557Z,71.17
2023-02-28T04:06:05.605Z,71.07
2023-02-28T04:07:05.542Z,71.07
2023-02-28T04:08:05.480Z,70.78
2023-02-28T04:09:05.417Z,71.17
2023-02-28T04:10:05.353Z,71.17
2023-02-28T04:11:05.303Z,70.59
2023-02-28T04:12:06.044Z,71.17
2023-02-28T04:13:05.173Z,71.17
2023-02-28T04:14:05.104Z,70.88
2023-02-28T04:15:05.051Z,70.88
2023-02-28T04:16:05.025Z,71.17
2023-02-28T04:17:04.930Z,70.98
2023-02-28T04:18:04.867Z,70.98
2023-02-28T04:19:04.795Z,70.78
2023-02-28T04:20:04.738Z,70.98
2023-02-28T04:21:04.677Z,71.26
2023-02-28T04:22:04.618Z,70.88
2023-02-28T04:23:04.551Z,70.98
2023-02-28T04:24:04.489Z,71.17
2023-02-28T04:25:04.426Z,70.88
2023-02-28T04:26:04.368Z,70.88
2023-02-28T04:27:04.304Z,71.07
2023-02-28T04:28:04.242Z,71.07
2023-02-28T04:29:04.179Z,71.07
2023-02-28T04:30:04.120Z,71.07
2023-02-28T04:31:04.064Z,70.98
2023-02-28T04:32:04.223Z,71.07
2023-02-28T04:33:03.930Z,71.17
2023-02-28T04:34:03.872Z,70.88
2023-02-28T04:35:03.815Z,70.88
2023-02-28T04:36:03.783Z,70.98
2023-02-28T04:37:13.240Z,70.88
2023-02-28T04:38:03.626Z,70.98
2023-02-28T04:39:03.556Z,70.78
2023-02-28T04:40:03.498Z,70.78
2023-02-28T04:41:03.438Z,71.26
2023-02-28T04:42:03.376Z,71.26
2023-02-28T04:43:03.330Z,71.26
2023-02-28T04:44:03.253Z,71.17
2023-02-28T04:45:03.212Z,70.98
2023-02-28T04:46:03.210Z,71.17
2023-02-28T04:47:03.071Z,71.17
2023-02-28T04:48:03.001Z,71.17
2023-02-28T04:49:02.979Z,71.17
2023-02-28T04:50:02.910Z,71.45
2023-02-28T04:51:02.819Z,71.17
2023-02-28T04:52:02.753Z,71.17
2023-02-28T04:53:02.685Z,71.17
2023-02-28T04:54:02.633Z,71.17
2023-02-28T04:55:02.566Z,71.36
2023-02-28T04:56:02.504Z,71.17
2023-02-28T04:57:02.446Z,70.98
2023-02-28T04:58:02.381Z,71.17
2023-02-28T04:59:02.322Z,71.17
2023-02-28T05:00:02.262Z,70.98
2023-02-28T05:01:02.198Z,71.17
2023-02-28T05:02:02.158Z,71.26
2023-02-28T05:03:02.072Z,71.07
2023-02-28T05:04:02.005Z,70.98
2023-02-28T05:05:02.028Z,71.26
2023-02-28T05:06:01.882Z,71.26
2023-02-28T05:07:01.822Z,70.88
2023-02-28T05:08:01.758Z,71.36
2023-02-28T05:09:01.712Z,71.26
2023-02-28T05:10:01.646Z,71.07
2023-02-28T05:11:01.567Z,71.26
2023-02-28T05:12:01.515Z,71.26
2023-02-28T05:13:01.454Z,71.83
2023-02-28T05:14:01.388Z,71.45
2023-02-28T05:15:01.322Z,71.45
2023-02-28T05:16:01.296Z,71.17
2023-02-28T05:17:01.226Z,71.26
2023-02-28T05:18:01.138Z,71.36
2023-02-28T05:19:01.115Z,71.17
2023-02-28T05:20:13.423Z,71.26
2023-02-28T05:21:00.946Z,70.98
2023-02-28T05:22:00.889Z,71.26
2023-02-28T05:23:00.827Z,71.36
2023-02-28T05:24:00.764Z,71.45
2023-02-28T05:25:00.711Z,71.26
2023-02-28T05:26:00.649Z,71.45
2023-02-28T05:27:00.582Z,71.64
2023-02-28T05:28:00.515Z,71.64
2023-02-28T05:29:00.464Z,71.73
2023-02-28T05:30:00.393Z,71.26
2023-02-28T05:31:00.331Z,71.64
2023-02-28T05:32:00.360Z,71.64
2023-02-28T05:33:00.235Z,71.64
2023-02-28T05:34:00.148Z,71.83
2023-02-28T05:35:00.106Z,71.55
2023-02-28T05:36:00.114Z,71.45
2023-02-28T05:36:59.968Z,71.45
2023-02-28T05:37:59.900Z,71.45
2023-02-28T05:38:59.840Z,71.26
2023-02-28T05:39:59.773Z,71.36
2023-02-28T05:40:59.713Z,71.64
2023-02-28T05:41:59.646Z,71.55
2023-02-28T05:42:59.588Z,71.45
2023-02-28T05:43:59.527Z,71.64
2023-02-28T05:44:59.466Z,71.64
2023-02-28T05:45:59.494Z,71.45
2023-02-28T05:46:59.337Z,71.26
2023-02-28T05:47:59.287Z,71.45
2023-02-28T05:48:59.250Z,71.55
2023-02-28T05:49:59.150Z,71.36
2023-02-28T05:50:59.090Z,71.55
2023-02-28T05:51:59.033Z,71.26
2023-02-28T05:52:58.968Z,71.83
2023-02-28T05:53:58.910Z,71.26
2023-02-28T05:54:58.843Z,70.98
2023-02-28T05:55:58.790Z,71.64
2023-02-28T05:56:58.726Z,71.92
2023-02-28T05:57:58.661Z,71.73
2023-02-28T05:58:58.606Z,72.02
2023-02-28T05:59:58.533Z,71.92
2023-02-28T06:00:58.473Z,71.64
2023-02-28T06:01:58.442Z,71.45
2023-02-28T06:02:58.352Z,71.55
2023-02-28T06:03:58.308Z,71.17
2023-02-28T06:04:58.236Z,71.36
2023-02-28T06:05:58.166Z,71.26
2023-02-28T06:06:58.103Z,71.45
2023-02-28T06:07:58.044Z,71.55
2023-02-28T06:08:57.980Z,71.45
2023-02-28T06:09:57.918Z,71.26
2023-02-28T06:10:57.856Z,71.26
2023-02-28T06:11:57.794Z,71.45
2023-02-28T06:12:57.729Z,71.36
2023-02-28T06:13:57.679Z,71.36
2023-02-28T06:14:57.607Z,71.26
2023-02-28T06:15:57.546Z,71.64
2023-02-28T06:16:59.165Z,71.64
2023-02-28T06:17:57.422Z,71.55
2023-02-28T06:18:57.366Z,71.45
2023-02-28T06:19:57.300Z,71.64
2023-02-28T06:20:57.247Z,71.83
2023-02-28T06:21:57.173Z,71.45
2023-02-28T06:22:57.117Z,71.45
2023-02-28T06:23:57.050Z,71.45
2023-02-28T06:24:56.986Z,71.45
2023-02-28T06:25:56.924Z,71.45
2023-02-28T06:26:56.863Z,71.55
2023-02-28T06:27:56.820Z,71.45
2023-02-28T06:28:56.739Z,71.45
2023-02-28T06:29:56.681Z,71.83
2023-02-28T06:30:56.627Z,71.73
2023-02-28T06:31:56.570Z,71.92
2023-02-28T06:32:56.492Z,71.92
2023-02-28T06:33:56.427Z,71.64
2023-02-28T06:34:56.368Z,72.21
2023-02-28T06:35:56.393Z,71.73
2023-02-28T06:36:56.245Z,71.92
2023-02-28T06:37:56.184Z,71.45
2023-02-28T06:38:56.121Z,71.64
2023-02-28T06:39:56.062Z,71.45
2023-02-28T06:40:56.002Z,71.55
2023-02-28T06:41:56.560Z,72.11
2023-02-28T06:42:55.868Z,71.73
2023-02-28T06:43:55.807Z,71.17
2023-02-28T06:44:55.784Z,71.83
2023-02-28T06:45:55.736Z,71.55
2023-02-28T06:46:55.628Z,71.55
2023-02-28T06:47:55.561Z,71.55
2023-02-28T06:48:55.503Z,71.45
2023-02-28T06:49:55.440Z,71.07
2023-02-28T06:50:55.390Z,71.55
2023-02-28T06:51:55.311Z,71.36
2023-02-28T06:52:55.281Z,72.11
2023-02-28T06:53:55.195Z,71.64
2023-02-28T06:54:55.127Z,71.36
2023-02-28T06:55:55.069Z,71.55
2023-02-28T06:56:55.001Z,71.17
2023-02-28T06:57:54.944Z,72.30
2023-02-28T06:58:54.961Z,72.11
2023-02-28T06:59:54.839Z,71.64
2023-02-28T07:00:54.756Z,71.83
2023-02-28T07:01:54.710Z,71.55
2023-02-28T07:02:54.632Z,71.45
2023-02-28T07:03:54.570Z,71.36
2023-02-28T07:04:54.600Z,71.64
2023-02-28T07:05:54.440Z,71.26
2023-02-28T07:06:54.381Z,71.73
2023-02-28T07:07:54.339Z,71.17
2023-02-28T07:08:54.269Z,71.55
2023-02-28T07:09:54.195Z,71.92
2023-02-28T07:10:54.134Z,71.83
2023-02-28T07:11:54.070Z,71.55
2023-02-28T07:12:54.011Z,71.45
2023-02-28T07:13:53.957Z,71.45
2023-02-28T07:14:53.884Z,71.64
2023-02-28T07:15:53.840Z,71.26
2023-02-28T07:16:53.766Z,71.26
2023-02-28T07:17:53.712Z,71.45
2023-02-28T07:18:53.633Z,71.55
2023-02-28T07:19:53.568Z,71.55
2023-02-28T07:20:53.504Z,71.07
2023-02-28T07:21:53.452Z,71.45
2023-02-28T07:22:53.380Z,71.55
2023-02-28T07:23:53.319Z,71.64
2023-02-28T07:24:53.275Z,71.36
2023-02-28T07:25:53.209Z,71.64
2023-02-28T07:26:53.136Z,71.83
2023-02-28T07:27:53.075Z,71.55
2023-02-28T07:28:53.011Z,71.55
2023-02-28T07:29:52.952Z,71.83
2023-02-28T07:30:52.924Z,71.55
2023-02-28T07:31:52.902Z,71.45
2023-02-28T07:32:52.762Z,71.26
2023-02-28T07:33:52.704Z,71.36
2023-02-28T07:34:52.640Z,71.17
2023-02-28T07:35:52.653Z,71.73
2023-02-28T07:36:52.515Z,71.55
2023-02-28T07:37:52.455Z,71.83
2023-02-28T07:38:52.393Z,71.73
2023-02-28T07:39:52.329Z,71.55
2023-02-28T07:40:52.276Z,72.11
2023-02-28T07:41:52.207Z,71.64
2023-02-28T07:42:52.148Z,71.26
2023-02-28T07:43:52.083Z,71.55
2023-02-28T07:44:52.035Z,70.98
2023-02-28T07:45:51.960Z,71.83
2023-02-28T07:46:52.028Z,71.64
2023-02-28T07:47:51.844Z,72.11
2023-02-28T07:48:51.772Z,72.02
2023-02-28T07:49:51.712Z,72.21
2023-02-28T07:50:51.649Z,71.36
2023-02-28T07:51:51.607Z,72.02
2023-02-28T07:52:51.527Z,71.64
2023-02-28T07:53:51.469Z,71.92
2023-02-28T07:54:51.406Z,71.55
2023-02-28T07:55:51.346Z,71.55
2023-02-28T07:56:51.288Z,71.55
2023-02-28T07:57:51.219Z,71.45
2023-02-28T07:58:51.161Z,71.26
2023-02-28T07:59:51.109Z,71.55
2023-02-28T08:00:51.083Z,71.45
2023-02-28T08:01:50.987Z,71.45
2023-02-28T08:02:50.917Z,71.64
2023-02-28T08:03:50.848Z,71.64
2023-02-28T08:04:50.837Z,71.55
2023-02-28T08:05:50.725Z,71.17
2023-02-28T08:06:50.662Z,71.64
2023-02-28T08:07:50.681Z,71.92
2023-02-28T08:08:50.536Z,71.83
2023-02-28T08:09:50.479Z,71.73
2023-02-28T08:10:50.410Z,71.45
2023-02-28T08:11:51.100Z,71.26
2023-02-28T08:12:50.294Z,71.45
2023-02-28T08:13:50.235Z,71.45
2023-02-28T08:14:50.161Z,71.26
2023-02-28T08:15:50.155Z,71.64
2023-02-28T08:16:50.040Z,71.45
2023-02-28T08:17:49.976Z,71.55
2023-02-28T08:18:49.940Z,71.07
2023-02-28T08:19:49.884Z,71.64
2023-02-28T08:20:49.790Z,71.36
2023-02-28T08:21:49.726Z,71.55
2023-02-28T08:22:49.671Z,71.07
2023-02-28T08:23:49.624Z,71.07
2023-02-28T08:24:49.537Z,71.36
2023-02-28T08:25:49.479Z,71.55
2023-02-28T08:26:49.417Z,71.64
2023-02-28T08:27:49.353Z,71.83
2023-02-28T08:28:49.299Z,71.26
2023-02-28T08:29:49.235Z,71.83
2023-02-28T08:30:49.167Z,71.55
2023-02-28T08:31:49.271Z,71.26
2023-02-28T08:32:49.078Z,71.45
2023-02-28T08:33:48.988Z,71.83
2023-02-28T08:34:48.919Z,71.26
2023-02-28T08:35:48.924Z,71.45
2023-02-28T08:36:48.797Z,71.45
2023-02-28T08:37:48.743Z,71.83
2023-02-28T08:38:48.681Z,71.26
2023-02-28T08:39:48.615Z,71.73
2023-02-28T08:40:48.545Z,71.45
2023-02-28T08:41:53.493Z,71.73
2023-02-28T08:42:48.429Z,71.83
2023-02-28T08:43:48.358Z,71.64
2023-02-28T08:44:48.299Z,71.45
2023-02-28T08:45:48.285Z,71.55
2023-02-28T08:46:48.174Z,71.64
2023-02-28T08:47:48.121Z,71.36
2023-02-28T08:48:48.043Z,71.64
2023-02-28T08:49:48.021Z,71.73
2023-02-28T08:50:55.771Z,71.92
2023-02-28T08:51:47.857Z,71.64
2023-02-28T08:52:47.803Z,71.36
2023-02-28T08:53:47.732Z,71.64
2023-02-28T08:54:47.672Z,72.21
2023-02-28T08:55:47.610Z,72.11
2023-02-28T08:56:47.545Z,71.73
2023-02-28T08:57:47.486Z,71.83
2023-02-28T08:58:47.424Z,71.26
2023-02-28T08:59:47.365Z,72.02
2023-02-28T09:00:47.332Z,71.83
2023-02-28T09:01:47.232Z,71.45
2023-02-28T09:02:47.175Z,71.45
2023-02-28T09:03:47.231Z,71.36
2023-02-28T09:04:47.055Z,71.36
2023-02-28T09:05:46.990Z,72.02
2023-02-28T09:06:46.923Z,71.73
2023-02-28T09:07:46.858Z,71.73
2023-02-28T09:08:46.805Z,71.36
2023-02-28T09:09:46.739Z,71.45
2023-02-28T09:10:46.676Z,71.83
2023-02-28T09:11:46.611Z,71.92
2023-02-28T09:12:46.554Z,71.17
2023-02-28T09:13:46.490Z,71.64
2023-02-28T09:14:46.433Z,71.83
2023-02-28T09:15:46.375Z,71.36
2023-02-28T09:16:46.347Z,71.26
2023-02-28T09:17:47.210Z,71.26
2023-02-28T09:18:46.190Z,71.45
2023-02-28T09:19:46.124Z,71.55
2023-02-28T09:20:46.062Z,71.55
2023-02-28T09:21:45.998Z,71.36
2023-02-28T09:22:45.933Z,71.45
2023-02-28T09:23:45.876Z,71.92
2023-02-28T09:24:45.923Z,71.55
2023-02-28T09:25:45.743Z,71.92
2023-02-28T09:26:56.504Z,71.17
2023-02-28T09:27:45.623Z,71.83
2023-02-28T09:28:45.560Z,71.83
2023-02-28T09:29:45.502Z,71.64
2023-02-28T09:30:45.498Z,71.55
2023-02-28T09:31:45.374Z,71.45
2023-02-28T09:32:45.323Z,71.45
2023-02-28T09:33:45.248Z,71.45
2023-02-28T09:34:45.257Z,71.07
2023-02-28T09:35:45.125Z,71.17
2023-02-28T09:36:46.406Z,71.26
2023-02-28T09:37:44.999Z,71.55
2023-02-28T09:38:44.942Z,71.45
2023-02-28T09:39:44.879Z,71.36
2023-02-28T09:40:44.816Z,70.98
2023-02-28T09:41:44.751Z,71.36
2023-02-28T09:42:44.691Z,71.17
2023-02-28T09:43:44.627Z,71.26
2023-02-28T09:44:45.163Z,71.26
2023-02-28T09:45:44.540Z,71.26
2023-02-28T09:46:44.442Z,71.07
2023-02-28T09:47:44.380Z,71.17
2023-02-28T09:48:44.321Z,71.07
2023-02-28T09:49:44.266Z,71.07
2023-02-28T09:50:44.198Z,71.17
2023-02-28T09:51:44.137Z,71.07
2023-02-28T09:52:44.074Z,71.26
2023-02-28T09:53:47.739Z,71.17
2023-02-28T09:54:43.961Z,71.26
2023-02-28T09:55:47.056Z,71.17
2023-02-28T09:56:43.824Z,70.88
2023-02-28T09:57:43.768Z,71.07
2023-02-28T09:58:43.700Z,71.26
2023-02-28T09:59:43.639Z,71.26
2023-02-28T10:00:43.584Z,71.26
2023-02-28T10:01:43.560Z,71.17
2023-02-28T10:02:43.450Z,71.17
2023-02-28T10:03:43.390Z,71.07
2023-02-28T10:04:43.393Z,71.26
2023-02-28T10:05:44.384Z,71.26
2023-02-28T10:06:43.201Z,71.26
2023-02-28T10:07:43.154Z,71.36
2023-02-28T10:08:43.079Z,71.17
2023-02-28T10:09:43.014Z,71.45
2023-02-28T10:10:42.966Z,71.26
2023-02-28T10:11:42.893Z,71.26
2023-02-28T10:12:42.839Z,71.17
2023-02-28T10:13:42.766Z,71.26
2023-02-28T10:14:42.711Z,71.17
2023-02-28T10:15:42.708Z,71.26
2023-02-28T10:16:42.602Z,71.17
2023-02-28T10:17:55.434Z,71.17
2023-02-28T10:18:42.460Z,71.17
2023-02-28T10:19:42.400Z,71.17
2023-02-28T10:20:42.348Z,71.26
2023-02-28T10:21:42.274Z,71.07
2023-02-28T10:22:42.209Z,71.45
2023-02-28T10:23:42.143Z,71.07
2023-02-28T10:24:42.084Z,71.17
2023-02-28T10:25:42.023Z,71.17
2023-02-28T10:26:41.964Z,71.45
2023-02-28T10:27:41.895Z,71.26
2023-02-28T10:28:41.837Z,71.17
2023-02-28T10:29:41.774Z,70.98
2023-02-28T10:30:41.769Z,70.88
2023-02-28T10:31:41.660Z,70.78
2023-02-28T10:32:41.595Z,70.88
2023-02-28T10:33:41.529Z,70.98
2023-02-28T10:34:41.469Z,70.78
2023-02-28T10:35:41.408Z,70.88
2023-02-28T10:36:41.354Z,70.59
2023-02-28T10:37:41.279Z,70.88
2023-02-28T10:38:41.217Z,70.78
2023-02-28T10:39:41.156Z,70.88
2023-02-28T10:40:41.092Z,71.07
2023-02-28T10:41:41.029Z,71.36
2023-02-28T10:42:40.971Z,70.98
2023-02-28T10:43:40.921Z,71.17
2023-02-28T10:44:40.850Z,70.98
2023-02-28T10:45:40.782Z,71.07
2023-02-28T10:46:40.749Z,70.88
2023-02-28T10:47:40.664Z,70.88
2023-02-28T10:48:40.600Z,71.07
2023-02-28T10:49:40.537Z,70.88
2023-02-28T10:50:40.474Z,71.07
2023-02-28T10:51:40.411Z,71.17
2023-02-28T10:52:40.359Z,70.98
2023-02-28T10:53:57.676Z,71.07
2023-02-28T10:54:40.230Z,70.88
2023-02-28T10:55:40.165Z,70.88
2023-02-28T10:56:40.105Z,71.07
2023-02-28T10:57:40.043Z,71.07
2023-02-28T10:58:39.979Z,71.07
2023-02-28T10:59:39.915Z,70.98
2023-02-28T11:00:39.849Z,71.07
2023-02-28T11:01:39.814Z,71.36
2023-02-28T11:02:39.733Z,71.17
2023-02-28T11:03:39.670Z,71.07
2023-02-28T11:04:39.776Z,70.98
2023-02-28T11:05:39.556Z,71.17
2023-02-28T11:06:39.485Z,70.98
2023-02-28T11:07:50.694Z,71.07
2023-02-28T11:08:39.365Z,71.07
2023-02-28T11:09:39.291Z,71.17
2023-02-28T11:10:39.230Z,71.07
2023-02-28T11:11:39.185Z,70.98
2023-02-28T11:12:47.040Z,71.17
2023-02-28T11:13:39.057Z,70.98
2023-02-28T11:14:38.981Z,70.98
2023-02-28T11:15:38.953Z,71.17
2023-02-28T11:16:38.858Z,71.26
2023-02-28T11:17:38.796Z,70.98
2023-02-28T11:18:38.736Z,71.07
2023-02-28T11:19:38.672Z,71.20
2023-02-28T11:20:38.614Z,71.17
2023-02-28T11:21:59.533Z,71.17
2023-02-28T11:22:38.482Z,71.26
2023-02-28T11:23:38.429Z,70.88
2023-02-28T11:24:38.376Z,71.26
2023-02-28T11:25:38.305Z,70.98
2023-02-28T11:26:38.245Z,70.98
2023-02-28T11:27:38.174Z,71.17
2023-02-28T11:28:38.224Z,70.69
2023-02-28T11:29:38.054Z,70.69
2023-02-28T11:30:37.999Z,71.17
2023-02-28T11:31:37.961Z,71.26
2023-02-28T11:32:37.942Z,70.78
2023-02-28T11:33:37.808Z,70.78
2023-02-28T11:34:37.743Z,70.98
2023-02-28T11:35:37.788Z,70.98
2023-02-28T11:36:37.617Z,70.98
2023-02-28T11:37:37.564Z,70.98
2023-02-28T11:38:37.513Z,71.17
2023-02-28T11:39:37.432Z,71.17
2023-02-28T11:40:37.381Z,71.17
2023-02-28T11:41:38.592Z,71.36
2023-02-28T11:42:37.248Z,70.98
2023-02-28T11:43:37.188Z,70.98
2023-02-28T11:44:37.126Z,70.98
2023-02-28T11:45:37.060Z,70.98
2023-02-28T11:46:37.056Z,71.17
2023-02-28T11:47:36.938Z,70.98
2023-02-28T11:48:36.875Z,71.07
2023-02-28T11:49:36.820Z,71.17
2023-02-28T11:50:36.753Z,71.20
2023-02-28T11:51:36.695Z,71.17
2023-02-28T11:52:36.624Z,71.30
2023-02-28T11:53:36.574Z,71.01
2023-02-28T11:54:36.506Z,71.39
2023-02-28T11:55:36.446Z,71.11
2023-02-28T11:56:36.398Z,70.82
2023-02-28T11:57:36.334Z,71.11
2023-02-28T11:58:36.282Z,71.11
2023-02-28T11:59:36.200Z,70.92
2023-02-28T12:00:36.136Z,71.17
2023-02-28T12:01:36.078Z,71.11
2023-02-28T12:02:36.123Z,71.20
2023-02-28T12:03:36.047Z,71.20
2023-02-28T12:04:35.896Z,71.01
2023-02-28T12:05:35.841Z,70.92
2023-02-28T12:06:35.772Z,71.11
2023-02-28T12:07:35.721Z,71.11
2023-02-28T12:08:35.654Z,71.11
2023-02-28T12:09:35.588Z,70.88
2023-02-28T12:10:35.524Z,71.20
2023-02-28T12:11:35.469Z,71.11
2023-02-28T12:12:35.412Z,71.11
2023-02-28T12:13:35.345Z,71.07
2023-02-28T12:14:35.282Z,71.01
2023-02-28T12:15:35.221Z,70.92
2023-02-28T12:16:35.211Z,70.35
2023-02-28T12:17:35.103Z,70.54
2023-02-28T12:18:35.033Z,70.63
2023-02-28T12:19:34.971Z,70.63
2023-02-28T12:20:34.933Z,70.54
2023-02-28T12:21:34.859Z,70.54
2023-02-28T12:22:34.802Z,70.73
2023-02-28T12:23:34.730Z,70.44
2023-02-28T12:24:34.667Z,70.73
2023-02-28T12:25:34.608Z,71.11
2023-02-28T12:26:34.542Z,70.63
2023-02-28T12:27:34.483Z,70.92
2023-02-28T12:28:34.419Z,70.63
2023-02-28T12:29:34.355Z,70.63
2023-02-28T12:30:34.292Z,70.92
2023-02-28T12:31:34.266Z,70.73
2023-02-28T12:32:34.202Z,70.63
2023-02-28T12:33:34.104Z,70.54
2023-02-28T12:34:34.046Z,70.44
2023-02-28T12:35:33.997Z,70.44
2023-02-28T12:36:36.676Z,71.01
2023-02-28T12:37:33.857Z,70.73
2023-02-28T12:38:33.795Z,71.20
2023-02-28T12:39:41.720Z,71.11
2023-02-28T12:40:33.675Z,71.01
2023-02-28T12:41:33.609Z,71.01
2023-02-28T12:42:33.555Z,70.73
2023-02-28T12:43:33.487Z,70.35
2023-02-28T12:44:33.430Z,70.35
2023-02-28T12:45:33.403Z,70.25
2023-02-28T12:46:33.444Z,70.25
2023-02-28T12:47:33.244Z,70.44
2023-02-28T12:48:33.220Z,70.73
2023-02-28T12:49:33.147Z,70.44
2023-02-28T12:50:33.086Z,70.44
2023-02-28T12:51:32.997Z,70.73